sensor_id;sensor_type;location;lat;lon;timestamp;temperature;humidity
12315;DHT22;23886;46.614;14.276;2023-03-01T00:01:14;0.70;99.90
12315;DHT22;23886;46.614;14.276;2023-03-01T00:03:42;0.70;99.90
12315;DHT22;23886;46.614;14.276;2023-03-01T00:06:10;0.70;99.90
12315;DHT22;23886;46.614;14.276;2023-03-01T00:08:37;0.60;99.90
12315;DHT22;23886;46.614;14.276;2023-03-01T00:11:06;0.60;99.90
12315;DHT22;23886;46.614;14.276;2023-03-01T00:13:34;0.60;99.90
12315;DHT22;23886;46.614;14.276;2023-03-01T00:16:02;0.60;99.90
12315;DHT22;23886;46.614;14.276;2023-03-01T00:18:31;0.70;99.90
12315;DHT22;23886;46.614;14.276;2023-03-01T00:20:59;0.70;99.90
12315;DHT22;23886;46.614;14.276;2023-03-01T00:23:26;0.70;99.90
12315;DHT22;23886;46.614;14.276;2023-03-01T00:25:53;0.70;99.90
12315;DHT22;23886;46.614;14.276;2023-03-01T00:28:21;0.70;99.90
12315;DHT22;23886;46.614;14.276;2023-03-01T00:30:48;0.70;99.90
12315;DHT22;23886;46.614;14.276;2023-03-01T00:33:15;0.70;99.90
12315;DHT22;23886;46.614;14.276;2023-03-01T00:35:43;0.70;99.90
12315;DHT22;23886;46.614;14.276;2023-03-01T00:38:10;0.60;99.90
12315;DHT22;23886;46.614;14.276;2023-03-01T00:40:37;0.60;99.90
12315;DHT22;23886;46.614;14.276;2023-03-01T00:43:04;0.60;99.90
12315;DHT22;23886;46.614;14.276;2023-03-01T00:45:32;0.70;99.90
12315;DHT22;23886;46.614;14.276;2023-03-01T00:48:00;0.60;99.90
12315;DHT22;23886;46.614;14.276;2023-03-01T00:50:27;0.50;99.90
12315;DHT22;23886;46.614;14.276;2023-03-01T00:52:55;0.60;99.90
12315;DHT22;23886;46.614;14.276;2023-03-01T00:55:23;0.60;99.90
12315;DHT22;23886;46.614;14.276;2023-03-01T00:57:50;0.70;99.90
12315;DHT22;23886;46.614;14.276;2023-03-01T01:00:19;0.70;99.90
12315;DHT22;23886;46.614;14.276;2023-03-01T01:02:46;0.70;99.90
12315;DHT22;23886;46.614;14.276;2023-03-01T01:05:13;0.70;99.90
12315;DHT22;23886;46.614;14.276;2023-03-01T01:07:40;0.60;99.90
12315;DHT22;23886;46.614;14.276;2023-03-01T01:10:10;0.60;99.90
12315;DHT22;23886;46.614;14.276;2023-03-01T01:12:43;0.60;99.90
12315;DHT22;23886;46.614;14.276;2023-03-01T01:15:10;0.50;99.90
12315;DHT22;23886;46.614;14.276;2023-03-01T01:17:40;0.50;99.90
12315;DHT22;23886;46.614;14.276;2023-03-01T01:20:08;0.50;99.90
12315;DHT22;23886;46.614;14.276;2023-03-01T01:22:35;0.50;99.90
12315;DHT22;23886;46.614;14.276;2023-03-01T01:25:02;0.50;99.90
12315;DHT22;23886;46.614;14.276;2023-03-01T01:27:30;0.50;99.90
12315;DHT22;23886;46.614;14.276;2023-03-01T01:29:57;0.50;99.90
12315;DHT22;23886;46.614;14.276;2023-03-01T01:32:24;0.50;99.90
12315;DHT22;23886;46.614;14.276;2023-03-01T01:34:51;0.50;99.90
12315;DHT22;23886;46.614;14.276;2023-03-01T01:37:18;0.50;99.90
12315;DHT22;23886;46.614;14.276;2023-03-01T01:39:45;0.40;99.90
12315;DHT22;23886;46.614;14.276;2023-03-01T01:42:15;0.50;99.90
12315;DHT22;23886;46.614;14.276;2023-03-01T01:44:46;0.50;99.90
12315;DHT22;23886;46.614;14.276;2023-03-01T01:47:16;0.50;99.90
12315;DHT22;23886;46.614;14.276;2023-03-01T01:49:47;0.40;99.90
12315;DHT22;23886;46.614;14.276;2023-03-01T01:52:18;0.50;99.90
12315;DHT22;23886;46.614;14.276;2023-03-01T01:54:50;0.50;99.90
12315;DHT22;23886;46.614;14.276;2023-03-01T01:57:21;0.40;99.90
12315;DHT22;23886;46.614;14.276;2023-03-01T01:59:52;0.40;99.90
12315;DHT22;23886;46.614;14.276;2023-03-01T02:02:21;0.40;99.90
12315;DHT22;23886;46.614;14.276;2023-03-01T02:04:49;0.30;99.90
12315;DHT22;23886;46.614;14.276;2023-03-01T02:07:19;0.40;99.90
12315;DHT22;23886;46.614;14.276;2023-03-01T02:09:48;0.40;99.90
12315;DHT22;23886;46.614;14.276;2023-03-01T02:12:18;0.40;99.90
12315;DHT22;23886;46.614;14.276;2023-03-01T02:14:45;0.40;99.90
12315;DHT22;23886;46.614;14.276;2023-03-01T02:17:15;0.30;99.90
12315;DHT22;23886;46.614;14.276;2023-03-01T02:19:51;0.40;99.90
12315;DHT22;23886;46.614;14.276;2023-03-01T02:22:23;0.40;99.90
12315;DHT22;23886;46.614;14.276;2023-03-01T02:25:01;0.50;99.90
12315;DHT22;23886;46.614;14.276;2023-03-01T02:27:37;0.50;99.90
12315;DHT22;23886;46.614;14.276;2023-03-01T02:30:08;0.50;99.90
12315;DHT22;23886;46.614;14.276;2023-03-01T02:32:38;0.50;99.90
12315;DHT22;23886;46.614;14.276;2023-03-01T02:35:09;0.50;99.90
12315;DHT22;23886;46.614;14.276;2023-03-01T02:37:37;0.50;99.90
12315;DHT22;23886;46.614;14.276;2023-03-01T02:40:08;0.50;99.90
12315;DHT22;23886;46.614;14.276;2023-03-01T02:42:42;0.50;99.90
12315;DHT22;23886;46.614;14.276;2023-03-01T02:45:13;0.50;99.90
12315;DHT22;23886;46.614;14.276;2023-03-01T02:47:40;0.50;99.90
12315;DHT22;23886;46.614;14.276;2023-03-01T02:50:19;0.50;99.90
12315;DHT22;23886;46.614;14.276;2023-03-01T02:52:56;0.40;99.90
12315;DHT22;23886;46.614;14.276;2023-03-01T02:55:24;0.40;99.90
12315;DHT22;23886;46.614;14.276;2023-03-01T02:57:52;0.50;99.90
12315;DHT22;23886;46.614;14.276;2023-03-01T03:00:24;0.60;99.90
12315;DHT22;23886;46.614;14.276;2023-03-01T03:02:54;0.50;99.90
12315;DHT22;23886;46.614;14.276;2023-03-01T03:05:25;0.50;99.90
12315;DHT22;23886;46.614;14.276;2023-03-01T03:07:53;0.50;99.90
12315;DHT22;23886;46.614;14.276;2023-03-01T03:10:22;0.60;99.90
12315;DHT22;23886;46.614;14.276;2023-03-01T03:12:51;0.60;99.90
12315;DHT22;23886;46.614;14.276;2023-03-01T03:15:19;0.60;99.90
12315;DHT22;23886;46.614;14.276;2023-03-01T03:17:48;0.60;99.90
12315;DHT22;23886;46.614;14.276;2023-03-01T03:20:17;0.70;99.90
12315;DHT22;23886;46.614;14.276;2023-03-01T03:22:46;0.50;99.90
12315;DHT22;23886;46.614;14.276;2023-03-01T03:25:13;0.60;99.90
12315;DHT22;23886;46.614;14.276;2023-03-01T03:27:41;0.60;99.90
12315;DHT22;23886;46.614;14.276;2023-03-01T03:30:11;0.50;99.90
12315;DHT22;23886;46.614;14.276;2023-03-01T03:32:39;0.50;99.90
12315;DHT22;23886;46.614;14.276;2023-03-01T03:35:09;0.60;99.90
12315;DHT22;23886;46.614;14.276;2023-03-01T03:37:36;0.50;99.90
12315;DHT22;23886;46.614;14.276;2023-03-01T03:40:21;0.50;99.90
12315;DHT22;23886;46.614;14.276;2023-03-01T03:42:48;0.50;99.90
12315;DHT22;23886;46.614;14.276;2023-03-01T03:45:15;0.50;99.90
12315;DHT22;23886;46.614;14.276;2023-03-01T03:47:43;0.40;99.90
12315;DHT22;23886;46.614;14.276;2023-03-01T03:50:13;0.30;99.90
12315;DHT22;23886;46.614;14.276;2023-03-01T03:52:41;0.40;99.90
12315;DHT22;23886;46.614;14.276;2023-03-01T03:55:09;0.40;99.90
12315;DHT22;23886;46.614;14.276;2023-03-01T03:57:38;0.50;99.90
12315;DHT22;23886;46.614;14.276;2023-03-01T04:00:06;0.50;99.90
12315;DHT22;23886;46.614;14.276;2023-03-01T04:02:38;0.40;99.90
12315;DHT22;23886;46.614;14.276;2023-03-01T04:05:07;0.40;99.90
12315;DHT22;23886;46.614;14.276;2023-03-01T04:07:37;0.40;99.90
12315;DHT22;23886;46.614;14.276;2023-03-01T04:10:06;0.30;99.90
12315;DHT22;23886;46.614;14.276;2023-03-01T04:12:33;0.40;99.90
12315;DHT22;23886;46.614;14.276;2023-03-01T04:15:00;0.40;99.90
12315;DHT22;23886;46.614;14.276;2023-03-01T04:17:28;0.40;99.90
12315;DHT22;23886;46.614;14.276;2023-03-01T04:19:55;0.40;99.90
12315;DHT22;23886;46.614;14.276;2023-03-01T04:22:22;0.40;99.90
12315;DHT22;23886;46.614;14.276;2023-03-01T04:24:56;0.40;99.90
12315;DHT22;23886;46.614;14.276;2023-03-01T04:27:23;0.50;99.90
12315;DHT22;23886;46.614;14.276;2023-03-01T04:29:50;0.40;99.90
12315;DHT22;23886;46.614;14.276;2023-03-01T04:32:17;0.40;99.90
12315;DHT22;23886;46.614;14.276;2023-03-01T04:34:44;0.50;99.90
12315;DHT22;23886;46.614;14.276;2023-03-01T04:37:11;0.50;99.90
12315;DHT22;23886;46.614;14.276;2023-03-01T04:39:38;0.50;99.90
12315;DHT22;23886;46.614;14.276;2023-03-01T04:42:12;0.50;99.90
12315;DHT22;23886;46.614;14.276;2023-03-01T04:44:39;0.50;99.90
12315;DHT22;23886;46.614;14.276;2023-03-01T04:47:06;0.50;99.90
12315;DHT22;23886;46.614;14.276;2023-03-01T04:49:33;0.50;99.90
12315;DHT22;23886;46.614;14.276;2023-03-01T04:52:00;0.50;99.90
12315;DHT22;23886;46.614;14.276;2023-03-01T04:54:27;0.50;99.90
12315;DHT22;23886;46.614;14.276;2023-03-01T04:56:55;0.50;99.90
12315;DHT22;23886;46.614;14.276;2023-03-01T04:59:23;0.40;99.90
12315;DHT22;23886;46.614;14.276;2023-03-01T05:01:50;0.30;99.90
12315;DHT22;23886;46.614;14.276;2023-03-01T05:04:18;0.40;99.90
12315;DHT22;23886;46.614;14.276;2023-03-01T05:06:45;0.30;99.90
12315;DHT22;23886;46.614;14.276;2023-03-01T05:09:11;0.30;99.90
12315;DHT22;23886;46.614;14.276;2023-03-01T05:11:38;0.40;99.90
12315;DHT22;23886;46.614;14.276;2023-03-01T05:14:07;0.30;99.90
12315;DHT22;23886;46.614;14.276;2023-03-01T05:16:36;0.30;99.90
12315;DHT22;23886;46.614;14.276;2023-03-01T05:19:03;0.40;99.90
12315;DHT22;23886;46.614;14.276;2023-03-01T05:21:37;0.40;99.90
12315;DHT22;23886;46.614;14.276;2023-03-01T05:24:24;0.40;99.90
12315;DHT22;23886;46.614;14.276;2023-03-01T05:26:51;0.40;99.90
12315;DHT22;23886;46.614;14.276;2023-03-01T05:29:19;0.30;99.90
12315;DHT22;23886;46.614;14.276;2023-03-01T05:31:52;0.30;99.90
12315;DHT22;23886;46.614;14.276;2023-03-01T05:34:23;0.30;99.90
12315;DHT22;23886;46.614;14.276;2023-03-01T05:36:51;0.40;99.90
12315;DHT22;23886;46.614;14.276;2023-03-01T05:39:19;0.40;99.90
12315;DHT22;23886;46.614;14.276;2023-03-01T05:41:48;0.30;99.90
12315;DHT22;23886;46.614;14.276;2023-03-01T05:44:15;0.30;99.90
12315;DHT22;23886;46.614;14.276;2023-03-01T05:46:42;0.40;99.90
12315;DHT22;23886;46.614;14.276;2023-03-01T05:49:11;0.40;99.90
12315;DHT22;23886;46.614;14.276;2023-03-01T05:51:39;0.40;99.90
12315;DHT22;23886;46.614;14.276;2023-03-01T05:54:07;0.40;99.90
12315;DHT22;23886;46.614;14.276;2023-03-01T05:56:34;0.50;99.90
12315;DHT22;23886;46.614;14.276;2023-03-01T05:59:01;0.40;99.90
12315;DHT22;23886;46.614;14.276;2023-03-01T06:01:28;0.40;99.90
12315;DHT22;23886;46.614;14.276;2023-03-01T06:03:56;0.40;99.90
12315;DHT22;23886;46.614;14.276;2023-03-01T06:06:25;0.50;99.90
12315;DHT22;23886;46.614;14.276;2023-03-01T06:08:52;0.50;99.90
12315;DHT22;23886;46.614;14.276;2023-03-01T06:11:19;0.40;99.90
12315;DHT22;23886;46.614;14.276;2023-03-01T06:13:46;0.40;99.90
12315;DHT22;23886;46.614;14.276;2023-03-01T06:16:14;0.30;99.90
12315;DHT22;23886;46.614;14.276;2023-03-01T06:18:41;0.30;99.90
12315;DHT22;23886;46.614;14.276;2023-03-01T06:21:08;0.30;99.90
12315;DHT22;23886;46.614;14.276;2023-03-01T06:23:37;0.30;99.90
12315;DHT22;23886;46.614;14.276;2023-03-01T06:26:07;0.30;99.90
12315;DHT22;23886;46.614;14.276;2023-03-01T06:28:35;0.30;99.90
12315;DHT22;23886;46.614;14.276;2023-03-01T06:31:02;0.40;99.90
12315;DHT22;23886;46.614;14.276;2023-03-01T06:33:29;0.30;99.90
12315;DHT22;23886;46.614;14.276;2023-03-01T06:35:56;0.30;99.90
12315;DHT22;23886;46.614;14.276;2023-03-01T06:38:23;0.30;99.90
12315;DHT22;23886;46.614;14.276;2023-03-01T06:40:55;0.30;99.90
12315;DHT22;23886;46.614;14.276;2023-03-01T06:43:22;0.40;99.90
12315;DHT22;23886;46.614;14.276;2023-03-01T06:45:49;0.40;99.90
12315;DHT22;23886;46.614;14.276;2023-03-01T06:48:16;0.40;99.90
12315;DHT22;23886;46.614;14.276;2023-03-01T06:50:43;0.40;99.90
12315;DHT22;23886;46.614;14.276;2023-03-01T06:53:10;0.40;99.90
12315;DHT22;23886;46.614;14.276;2023-03-01T06:55:37;0.40;99.90
12315;DHT22;23886;46.614;14.276;2023-03-01T06:58:05;0.60;99.90
12315;DHT22;23886;46.614;14.276;2023-03-01T07:00:33;0.80;99.90
12315;DHT22;23886;46.614;14.276;2023-03-01T07:03:00;0.60;99.90
12315;DHT22;23886;46.614;14.276;2023-03-01T07:05:28;0.50;99.90
12315;DHT22;23886;46.614;14.276;2023-03-01T07:07:55;0.50;99.90
12315;DHT22;23886;46.614;14.276;2023-03-01T07:10:22;0.40;99.90
12315;DHT22;23886;46.614;14.276;2023-03-01T07:12:49;0.40;99.90
12315;DHT22;23886;46.614;14.276;2023-03-01T07:15:18;0.30;99.90
12315;DHT22;23886;46.614;14.276;2023-03-01T07:17:45;0.20;99.90
12315;DHT22;23886;46.614;14.276;2023-03-01T07:20:13;0.20;99.90
12315;DHT22;23886;46.614;14.276;2023-03-01T07:22:41;0.10;99.90
12315;DHT22;23886;46.614;14.276;2023-03-01T07:25:09;0.20;99.90
12315;DHT22;23886;46.614;14.276;2023-03-01T07:27:36;0.20;99.90
12315;DHT22;23886;46.614;14.276;2023-03-01T07:30:04;0.40;99.90
12315;DHT22;23886;46.614;14.276;2023-03-01T07:32:33;0.60;99.90
12315;DHT22;23886;46.614;14.276;2023-03-01T07:35:00;0.60;99.90
12315;DHT22;23886;46.614;14.276;2023-03-01T07:37:27;0.50;99.90
12315;DHT22;23886;46.614;14.276;2023-03-01T07:39:54;0.70;99.90
12315;DHT22;23886;46.614;14.276;2023-03-01T07:42:21;0.70;99.90
12315;DHT22;23886;46.614;14.276;2023-03-01T07:44:48;0.80;99.90
12315;DHT22;23886;46.614;14.276;2023-03-01T07:47:15;0.90;99.90
12315;DHT22;23886;46.614;14.276;2023-03-01T07:49:43;0.90;99.90
12315;DHT22;23886;46.614;14.276;2023-03-01T07:52:10;0.90;99.90
12315;DHT22;23886;46.614;14.276;2023-03-01T07:54:37;0.90;99.90
12315;DHT22;23886;46.614;14.276;2023-03-01T07:57:04;1.00;99.90
12315;DHT22;23886;46.614;14.276;2023-03-01T07:59:31;1.00;99.90
12315;DHT22;23886;46.614;14.276;2023-03-01T08:01:59;0.90;99.90
12315;DHT22;23886;46.614;14.276;2023-03-01T08:04:26;0.80;99.90
12315;DHT22;23886;46.614;14.276;2023-03-01T08:06:55;0.80;99.90
12315;DHT22;23886;46.614;14.276;2023-03-01T08:09:22;1.10;99.90
12315;DHT22;23886;46.614;14.276;2023-03-01T08:11:49;1.20;99.90
12315;DHT22;23886;46.614;14.276;2023-03-01T08:14:16;1.20;99.90
12315;DHT22;23886;46.614;14.276;2023-03-01T08:16:43;1.20;99.90
12315;DHT22;23886;46.614;14.276;2023-03-01T08:19:12;1.20;99.90
12315;DHT22;23886;46.614;14.276;2023-03-01T08:21:40;1.30;99.90
12315;DHT22;23886;46.614;14.276;2023-03-01T08:24:08;1.00;99.90
12315;DHT22;23886;46.614;14.276;2023-03-01T08:26:36;1.00;99.90
12315;DHT22;23886;46.614;14.276;2023-03-01T08:29:04;0.90;99.90
12315;DHT22;23886;46.614;14.276;2023-03-01T08:31:32;1.00;99.90
12315;DHT22;23886;46.614;14.276;2023-03-01T08:34:03;0.90;99.90
12315;DHT22;23886;46.614;14.276;2023-03-01T08:36:32;0.90;99.90
12315;DHT22;23886;46.614;14.276;2023-03-01T08:39:00;1.00;99.90
12315;DHT22;23886;46.614;14.276;2023-03-01T08:41:28;1.10;99.90
12315;DHT22;23886;46.614;14.276;2023-03-01T08:43:56;1.30;99.90
12315;DHT22;23886;46.614;14.276;2023-03-01T08:46:25;1.40;99.90
12315;DHT22;23886;46.614;14.276;2023-03-01T08:48:52;1.50;99.90
12315;DHT22;23886;46.614;14.276;2023-03-01T08:51:20;1.50;99.90
12315;DHT22;23886;46.614;14.276;2023-03-01T08:53:48;1.10;99.90
12315;DHT22;23886;46.614;14.276;2023-03-01T08:56:15;1.20;99.90
12315;DHT22;23886;46.614;14.276;2023-03-01T08:58:46;1.20;99.90
12315;DHT22;23886;46.614;14.276;2023-03-01T09:01:14;1.30;99.90
12315;DHT22;23886;46.614;14.276;2023-03-01T09:03:42;1.10;99.90
12315;DHT22;23886;46.614;14.276;2023-03-01T09:06:09;1.30;99.90
12315;DHT22;23886;46.614;14.276;2023-03-01T09:08:38;1.50;99.90
12315;DHT22;23886;46.614;14.276;2023-03-01T09:11:07;1.50;99.90
12315;DHT22;23886;46.614;14.276;2023-03-01T09:13:34;1.40;99.90
12315;DHT22;23886;46.614;14.276;2023-03-01T09:16:05;1.60;99.90
12315;DHT22;23886;46.614;14.276;2023-03-01T09:18:32;1.70;99.90
12315;DHT22;23886;46.614;14.276;2023-03-01T09:21:03;1.80;99.90
12315;DHT22;23886;46.614;14.276;2023-03-01T09:23:33;1.60;99.90
12315;DHT22;23886;46.614;14.276;2023-03-01T09:26:02;1.30;99.90
12315;DHT22;23886;46.614;14.276;2023-03-01T09:28:28;1.40;99.90
12315;DHT22;23886;46.614;14.276;2023-03-01T09:30:58;1.20;99.90
12315;DHT22;23886;46.614;14.276;2023-03-01T09:33:26;1.20;99.90
12315;DHT22;23886;46.614;14.276;2023-03-01T09:35:57;1.30;99.90
12315;DHT22;23886;46.614;14.276;2023-03-01T09:38:24;1.20;99.90
12315;DHT22;23886;46.614;14.276;2023-03-01T09:40:51;1.20;99.90
12315;DHT22;23886;46.614;14.276;2023-03-01T09:43:23;1.40;99.90
12315;DHT22;23886;46.614;14.276;2023-03-01T09:45:54;1.60;99.90
12315;DHT22;23886;46.614;14.276;2023-03-01T09:48:26;1.90;99.90
12315;DHT22;23886;46.614;14.276;2023-03-01T09:50:53;1.60;99.90
12315;DHT22;23886;46.614;14.276;2023-03-01T09:53:22;1.60;99.90
12315;DHT22;23886;46.614;14.276;2023-03-01T09:55:54;1.60;99.90
12315;DHT22;23886;46.614;14.276;2023-03-01T09:58:31;1.50;99.90
12315;DHT22;23886;46.614;14.276;2023-03-01T10:01:11;1.40;99.90
12315;DHT22;23886;46.614;14.276;2023-03-01T10:03:57;1.50;99.90
12315;DHT22;23886;46.614;14.276;2023-03-01T10:06:27;1.40;99.90
12315;DHT22;23886;46.614;14.276;2023-03-01T10:08:57;1.50;99.90
12315;DHT22;23886;46.614;14.276;2023-03-01T10:11:28;1.70;99.90
12315;DHT22;23886;46.614;14.276;2023-03-01T10:14:00;1.70;99.90
12315;DHT22;23886;46.614;14.276;2023-03-01T10:16:42;1.60;99.90
12315;DHT22;23886;46.614;14.276;2023-03-01T10:19:17;1.70;99.90
12315;DHT22;23886;46.614;14.276;2023-03-01T10:21:46;1.80;99.90
12315;DHT22;23886;46.614;14.276;2023-03-01T10:24:17;1.80;99.90
12315;DHT22;23886;46.614;14.276;2023-03-01T10:26:54;1.70;99.90
12315;DHT22;23886;46.614;14.276;2023-03-01T10:29:26;1.50;99.90
12315;DHT22;23886;46.614;14.276;2023-03-01T10:31:57;1.40;99.90
12315;DHT22;23886;46.614;14.276;2023-03-01T10:34:31;1.30;99.90
12315;DHT22;23886;46.614;14.276;2023-03-01T10:37:07;1.40;99.90
12315;DHT22;23886;46.614;14.276;2023-03-01T10:39:35;1.50;99.90
12315;DHT22;23886;46.614;14.276;2023-03-01T10:42:04;1.70;99.90
12315;DHT22;23886;46.614;14.276;2023-03-01T10:44:37;2.10;99.90
12315;DHT22;23886;46.614;14.276;2023-03-01T10:47:05;2.30;99.90
12315;DHT22;23886;46.614;14.276;2023-03-01T10:49:35;2.10;99.90
12315;DHT22;23886;46.614;14.276;2023-03-01T10:52:18;2.00;99.90
12315;DHT22;23886;46.614;14.276;2023-03-01T10:54:52;2.10;99.90
12315;DHT22;23886;46.614;14.276;2023-03-01T10:57:31;2.50;99.90
12315;DHT22;23886;46.614;14.276;2023-03-01T11:00:14;2.60;99.90
12315;DHT22;23886;46.614;14.276;2023-03-01T11:02:43;2.50;99.90
12315;DHT22;23886;46.614;14.276;2023-03-01T11:05:19;2.60;99.90
12315;DHT22;23886;46.614;14.276;2023-03-01T11:07:50;2.30;99.90
12315;DHT22;23886;46.614;14.276;2023-03-01T11:10:19;2.10;99.90
12315;DHT22;23886;46.614;14.276;2023-03-01T11:12:46;2.20;99.90
12315;DHT22;23886;46.614;14.276;2023-03-01T11:15:22;2.20;99.90
12315;DHT22;23886;46.614;14.276;2023-03-01T11:17:50;2.20;99.90
12315;DHT22;23886;46.614;14.276;2023-03-01T11:20:25;2.30;99.90
12315;DHT22;23886;46.614;14.276;2023-03-01T11:22:54;2.60;99.90
12315;DHT22;23886;46.614;14.276;2023-03-01T11:25:25;2.80;99.90
12315;DHT22;23886;46.614;14.276;2023-03-01T11:27:53;2.90;99.90
12315;DHT22;23886;46.614;14.276;2023-03-01T11:30:24;3.00;99.90
12315;DHT22;23886;46.614;14.276;2023-03-01T11:33:02;2.70;99.90
12315;DHT22;23886;46.614;14.276;2023-03-01T11:35:32;2.50;99.90
12315;DHT22;23886;46.614;14.276;2023-03-01T11:38:11;2.90;99.90
12315;DHT22;23886;46.614;14.276;2023-03-01T11:40:41;2.70;99.90
12315;DHT22;23886;46.614;14.276;2023-03-01T11:43:16;2.70;99.90
12315;DHT22;23886;46.614;14.276;2023-03-01T11:45:55;3.00;99.90
12315;DHT22;23886;46.614;14.276;2023-03-01T11:48:34;3.00;99.90
12315;DHT22;23886;46.614;14.276;2023-03-01T11:51:09;3.00;99.90
12315;DHT22;23886;46.614;14.276;2023-03-01T11:53:52;2.70;99.90
12315;DHT22;23886;46.614;14.276;2023-03-01T11:56:26;2.50;99.90
12315;DHT22;23886;46.614;14.276;2023-03-01T11:59:23;2.30;99.90
12315;DHT22;23886;46.614;14.276;2023-03-01T12:07:41;2.50;99.90
12315;DHT22;23886;46.614;14.276;2023-03-01T12:10:20;2.70;99.90
12315;DHT22;23886;46.614;14.276;2023-03-01T12:13:08;2.90;99.90
12315;DHT22;23886;46.614;14.276;2023-03-01T12:18:54;2.40;99.90
12315;DHT22;23886;46.614;14.276;2023-03-01T12:21:34;2.10;99.90
12315;DHT22;23886;46.614;14.276;2023-03-01T12:24:31;2.00;99.90
12315;DHT22;23886;46.614;14.276;2023-03-01T12:27:12;2.10;99.90
12315;DHT22;23886;46.614;14.276;2023-03-01T12:29:50;2.20;99.90
12315;DHT22;23886;46.614;14.276;2023-03-01T12:32:33;2.20;99.90
12315;DHT22;23886;46.614;14.276;2023-03-01T12:35:33;2.10;99.90
12315;DHT22;23886;46.614;14.276;2023-03-01T12:38:14;2.10;99.90
12315;DHT22;23886;46.614;14.276;2023-03-01T12:41:04;2.00;99.90
12315;DHT22;23886;46.614;14.276;2023-03-01T12:43:47;1.90;99.90
12315;DHT22;23886;46.614;14.276;2023-03-01T12:46:25;1.90;99.90
12315;DHT22;23886;46.614;14.276;2023-03-01T12:49:02;1.90;99.90
12315;DHT22;23886;46.614;14.276;2023-03-01T12:51:33;1.90;99.90
12315;DHT22;23886;46.614;14.276;2023-03-01T12:54:07;1.80;99.90
12315;DHT22;23886;46.614;14.276;2023-03-01T12:56:39;1.90;99.90
12315;DHT22;23886;46.614;14.276;2023-03-01T12:59:12;1.80;99.90
12315;DHT22;23886;46.614;14.276;2023-03-01T13:01:48;1.90;99.90
12315;DHT22;23886;46.614;14.276;2023-03-01T13:04:37;1.90;99.90
12315;DHT22;23886;46.614;14.276;2023-03-01T13:07:25;1.90;99.90
12315;DHT22;23886;46.614;14.276;2023-03-01T13:10:02;2.10;99.90
12315;DHT22;23886;46.614;14.276;2023-03-01T13:12:45;2.20;99.90
12315;DHT22;23886;46.614;14.276;2023-03-01T13:15:26;2.20;99.90
12315;DHT22;23886;46.614;14.276;2023-03-01T13:17:55;2.10;99.90
12315;DHT22;23886;46.614;14.276;2023-03-01T13:20:25;2.10;99.90
12315;DHT22;23886;46.614;14.276;2023-03-01T13:23:03;2.40;99.90
12315;DHT22;23886;46.614;14.276;2023-03-01T13:25:31;2.10;99.90
12315;DHT22;23886;46.614;14.276;2023-03-01T13:30:59;2.20;99.90
12315;DHT22;23886;46.614;14.276;2023-03-01T13:33:44;2.30;99.90
12315;DHT22;23886;46.614;14.276;2023-03-01T13:39:30;2.50;99.90
12315;DHT22;23886;46.614;14.276;2023-03-01T13:41:59;2.50;99.90
12315;DHT22;23886;46.614;14.276;2023-03-01T13:44:30;2.60;99.90
12315;DHT22;23886;46.614;14.276;2023-03-01T13:47:06;2.60;99.90
12315;DHT22;23886;46.614;14.276;2023-03-01T13:49:46;2.60;99.90
12315;DHT22;23886;46.614;14.276;2023-03-01T13:52:38;2.40;99.90
12315;DHT22;23886;46.614;14.276;2023-03-01T13:55:16;2.50;99.90
12315;DHT22;23886;46.614;14.276;2023-03-01T13:57:47;2.60;99.90
12315;DHT22;23886;46.614;14.276;2023-03-01T14:00:31;2.70;99.90
12315;DHT22;23886;46.614;14.276;2023-03-01T14:03:11;2.60;99.90
12315;DHT22;23886;46.614;14.276;2023-03-01T14:05:39;2.90;99.90
12315;DHT22;23886;46.614;14.276;2023-03-01T14:08:19;2.80;99.90
12315;DHT22;23886;46.614;14.276;2023-03-01T14:13:53;2.60;99.90
12315;DHT22;23886;46.614;14.276;2023-03-01T14:16:30;2.40;99.90
12315;DHT22;23886;46.614;14.276;2023-03-01T14:19:14;2.30;99.90
12315;DHT22;23886;46.614;14.276;2023-03-01T14:21:42;2.50;99.90
12315;DHT22;23886;46.614;14.276;2023-03-01T14:24:17;2.60;99.90
12315;DHT22;23886;46.614;14.276;2023-03-01T14:26:45;2.60;99.90
12315;DHT22;23886;46.614;14.276;2023-03-01T14:29:26;2.70;99.90
12315;DHT22;23886;46.614;14.276;2023-03-01T14:31:53;2.90;99.90
12315;DHT22;23886;46.614;14.276;2023-03-01T14:34:23;2.50;99.90
12315;DHT22;23886;46.614;14.276;2023-03-01T14:36:50;2.60;99.90
12315;DHT22;23886;46.614;14.276;2023-03-01T14:39:18;2.70;99.90
12315;DHT22;23886;46.614;14.276;2023-03-01T14:41:46;2.60;99.90
12315;DHT22;23886;46.614;14.276;2023-03-01T14:44:16;2.50;99.90
12315;DHT22;23886;46.614;14.276;2023-03-01T14:46:45;2.40;99.90
12315;DHT22;23886;46.614;14.276;2023-03-01T14:49:15;2.30;99.90
12315;DHT22;23886;46.614;14.276;2023-03-01T14:51:50;2.30;99.90
12315;DHT22;23886;46.614;14.276;2023-03-01T14:54:27;2.40;99.90
12315;DHT22;23886;46.614;14.276;2023-03-01T14:56:58;2.40;99.90
12315;DHT22;23886;46.614;14.276;2023-03-01T14:59:25;2.40;99.90
12315;DHT22;23886;46.614;14.276;2023-03-01T15:01:55;2.60;99.90
12315;DHT22;23886;46.614;14.276;2023-03-01T15:04:23;2.70;99.90
12315;DHT22;23886;46.614;14.276;2023-03-01T15:06:55;2.60;99.90
12315;DHT22;23886;46.614;14.276;2023-03-01T15:09:22;2.50;99.90
12315;DHT22;23886;46.614;14.276;2023-03-01T15:11:49;2.60;99.90
12315;DHT22;23886;46.614;14.276;2023-03-01T15:14:27;2.50;99.90
12315;DHT22;23886;46.614;14.276;2023-03-01T15:16:54;2.40;99.90
12315;DHT22;23886;46.614;14.276;2023-03-01T15:19:24;2.30;99.90
12315;DHT22;23886;46.614;14.276;2023-03-01T15:21:55;2.40;99.90
12315;DHT22;23886;46.614;14.276;2023-03-01T15:24:25;2.30;99.90
12315;DHT22;23886;46.614;14.276;2023-03-01T15:26:57;2.20;99.90
12315;DHT22;23886;46.614;14.276;2023-03-01T15:29:29;2.30;99.90
12315;DHT22;23886;46.614;14.276;2023-03-01T15:32:00;2.20;99.90
12315;DHT22;23886;46.614;14.276;2023-03-01T15:34:30;2.10;99.90
12315;DHT22;23886;46.614;14.276;2023-03-01T15:37:00;2.10;99.90
12315;DHT22;23886;46.614;14.276;2023-03-01T15:39:39;2.10;99.90
12315;DHT22;23886;46.614;14.276;2023-03-01T15:42:10;2.20;99.90
12315;DHT22;23886;46.614;14.276;2023-03-01T15:44:39;2.20;99.90
12315;DHT22;23886;46.614;14.276;2023-03-01T15:47:22;2.30;99.90
12315;DHT22;23886;46.614;14.276;2023-03-01T15:49:52;2.30;99.90
12315;DHT22;23886;46.614;14.276;2023-03-01T15:52:23;2.30;99.90
12315;DHT22;23886;46.614;14.276;2023-03-01T15:54:55;2.30;99.90
12315;DHT22;23886;46.614;14.276;2023-03-01T15:57:22;2.30;99.90
12315;DHT22;23886;46.614;14.276;2023-03-01T15:59:50;2.30;99.90
12315;DHT22;23886;46.614;14.276;2023-03-01T16:02:24;2.30;99.90
12315;DHT22;23886;46.614;14.276;2023-03-01T16:04:51;2.20;99.90
12315;DHT22;23886;46.614;14.276;2023-03-01T16:07:20;2.30;99.90
12315;DHT22;23886;46.614;14.276;2023-03-01T16:09:47;2.20;99.90